TimeCST,TemperatureF,Dew PointF,Humidity,Sea Level PressureIn,VisibilityMPH,Wind Direction,Wind SpeedMPH,Gust SpeedMPH,PrecipitationIn,Events,Conditions,WindDirDegrees,DateUTC
12:15 AM,35.6,35.6,100,30.08,7.0,North,4.6,-,N/A,,Overcast,10,2013-01-17 06:15:00
12:35 AM,35.6,35.6,100,30.09,7.0,NE,3.5,-,N/A,,Overcast,40,2013-01-17 06:35:00
12:55 AM,35.6,35.6,100,30.09,7.0,NNE,4.6,-,N/A,,Overcast,20,2013-01-17 06:55:00
1:15 AM,35.6,35.6,100,30.07,8.0,NNE,4.6,-,N/A,,Overcast,30,2013-01-17 07:15:00
1:35 AM,35.6,35.6,100,30.07,7.0,NNE,6.9,-,N/A,,Overcast,20,2013-01-17 07:35:00
2:15 AM,35.6,35.6,100,30.08,10.0,North,3.5,-,N/A,,Mostly Cloudy,10,2013-01-17 08:15:00
2:35 AM,35.6,35.6,100,30.08,10.0,NE,4.6,-,N/A,,Mostly Cloudy,40,2013-01-17 08:35:00
2:55 AM,35.6,35.6,100,30.05,10.0,NNE,5.8,-,N/A,,Scattered Clouds,30,2013-01-17 08:55:00
3:35 AM,35.6,35.6,100,30.05,10.0,NNE,5.8,-,N/A,,Unknown,20,2013-01-17 09:35:00
3:55 AM,35.6,35.6,100,30.06,10.0,NNE,6.9,-,N/A,,Partly Cloudy,30,2013-01-17 09:55:00
4:15 AM,35.6,35.6,100,30.05,10.0,NNE,6.9,-,N/A,,Scattered Clouds,20,2013-01-17 10:15:00
4:35 AM,35.6,35.6,100,30.03,10.0,NNE,6.9,-,N/A,,Mostly Cloudy,30,2013-01-17 10:35:00
5:15 AM,35.6,35.6,100,30.03,10.0,NNE,5.8,-,N/A,,Partly Cloudy,30,2013-01-17 11:15:00
5:35 AM,35.6,33.8,93,30.02,10.0,NNE,9.2,-,N/A,,Scattered Clouds,30,2013-01-17 11:35:00
5:55 AM,35.6,33.8,93,30.02,10.0,NNE,8.1,-,N/A,,Partly Cloudy,30,2013-01-17 11:55:00
6:15 AM,35.6,33.8,93,30.02,10.0,NNE,6.9,-,N/A,,Unknown,30,2013-01-17 12:15:00
6:35 AM,33.8,33.8,100,30.05,8.0,NNE,4.6,-,N/A,,Partly Cloudy,30,2013-01-17 12:35:00
6:55 AM,33.8,33.8,100,30.05,10.0,North,5.8,-,N/A,,Mostly Cloudy,10,2013-01-17 12:55:00
7:15 AM,33.8,33.8,100,30.04,10.0,North,6.9,-,N/A,,Mostly Cloudy,10,2013-01-17 13:15:00
7:35 AM,33.8,33.8,100,30.05,10.0,NE,6.9,-,N/A,,Scattered Clouds,40,2013-01-17 13:35:00
7:55 AM,33.8,33.8,100,30.03,10.0,NE,9.2,-,N/A,,Scattered Clouds,40,2013-01-17 13:55:00
8:15 AM,33.8,33.8,100,30.01,10.0,NE,8.1,-,N/A,,Partly Cloudy,40,2013-01-17 14:15:00
8:35 AM,33.8,33.8,100,30.01,10.0,NNE,8.1,-,N/A,,Scattered Clouds,30,2013-01-17 14:35:00
8:55 AM,33.8,33.8,100,30.03,10.0,NE,8.1,-,N/A,,Mostly Cloudy,40,2013-01-17 14:55:00
9:15 AM,33.8,33.8,100,30.04,10.0,NE,9.2,-,N/A,,Mostly Cloudy,40,2013-01-17 15:15:00
9:35 AM,33.8,33.8,100,30.00,10.0,NNE,9.2,-,N/A,,Scattered Clouds,30,2013-01-17 15:35:00
9:55 AM,35.6,33.8,93,29.98,10.0,NNE,10.4,-,N/A,,Partly Cloudy,30,2013-01-17 15:55:00
10:15 AM,33.8,33.8,100,30.03,10.0,NE,9.2,-,N/A,,Mostly Cloudy,50,2013-01-17 16:15:00
10:35 AM,35.6,33.8,93,30.01,10.0,NNE,10.4,-,N/A,,Mostly Cloudy,20,2013-01-17 16:35:00
10:55 AM,35.6,33.8,93,30.01,10.0,NNE,9.2,-,N/A,,Overcast,30,2013-01-17 16:55:00
11:15 AM,35.6,33.8,93,30.01,10.0,NNE,13.8,-,N/A,,Overcast,30,2013-01-17 17:15:00
11:35 AM,35.6,33.8,93,30.03,10.0,NNE,8.1,-,N/A,,Mostly Cloudy,30,2013-01-17 17:35:00
11:55 AM,35.6,33.8,93,30.00,10.0,NE,12.7,24.2,N/A,,Scattered Clouds,40,2013-01-17 17:55:00
12:15 PM,35.6,33.8,93,29.97,10.0,NE,15.0,-,N/A,,Partly Cloudy,40,2013-01-17 18:15:00
12:55 PM,35.6,35.6,100,29.98,10.0,NE,18.4,-,N/A,,Partly Cloudy,40,2013-01-17 18:55:00
1:15 PM,35.6,35.6,100,29.96,10.0,NNE,12.7,29.9,N/A,,Partly Cloudy,30,2013-01-17 19:15:00
1:35 PM,35.6,33.8,93,29.98,10.0,NE,11.5,-,N/A,,Clear,40,2013-01-17 19:35:00
1:55 PM,37.4,33.8,87,29.99,10.0,NNE,12.7,24.2,N/A,,Clear,30,2013-01-17 19:55:00
2:15 PM,37.4,33.8,87,30.01,10.0,NNE,9.2,-,N/A,,Clear,30,2013-01-17 20:15:00
2:35 PM,37.4,35.6,93,30.01,10.0,NNE,10.4,-,N/A,,Clear,20,2013-01-17 20:35:00
2:55 PM,37.4,35.6,93,30.03,10.0,NE,6.9,-,N/A,,Clear,40,2013-01-17 20:55:00
3:15 PM,37.4,35.6,93,30.04,10.0,NE,9.2,-,N/A,,Clear,40,2013-01-17 21:15:00
3:35 PM,37.4,35.6,93,30.07,10.0,NNE,9.2,20.7,N/A,,Clear,30,2013-01-17 21:35:00
3:55 PM,39.2,35.6,87,30.09,10.0,NNE,10.4,-,N/A,,Clear,30,2013-01-17 21:55:00
4:15 PM,39.2,35.6,87,30.12,10.0,NNE,6.9,-,N/A,,Clear,20,2013-01-17 22:15:00
4:35 PM,39.2,35.6,87,30.14,10.0,NNE,6.9,-,N/A,,Clear,30,2013-01-17 22:35:00
4:55 PM,37.4,35.6,93,30.16,10.0,Variable,4.6,-,N/A,,Clear,0,2013-01-17 22:55:00
5:35 PM,37.4,35.6,93,30.19,10.0,North,5.8,-,N/A,,Clear,360,2013-01-17 23:35:00
6:15 PM,37.4,33.8,87,30.24,10.0,NNW,8.1,-,N/A,,Clear,340,2013-01-18 00:15:00
6:55 PM,35.6,33.8,93,30.27,10.0,North,4.6,-,N/A,,Clear,360,2013-01-18 00:55:00
7:55 PM,32.0,32.0,100,30.30,10.0,Calm,Calm,-,N/A,,Clear,0,2013-01-18 01:55:00
8:15 PM,30.2,30.2,100,30.31,10.0,Calm,Calm,-,N/A,,Clear,0,2013-01-18 02:15:00
8:35 PM,30.2,30.2,100,30.32,10.0,Calm,Calm,-,N/A,,Clear,0,2013-01-18 02:35:00
8:55 PM,28.4,28.4,100,30.33,10.0,Calm,Calm,-,N/A,,Clear,0,2013-01-18 02:55:00
9:15 PM,26.6,26.6,100,30.33,10.0,Calm,Calm,-,N/A,,Clear,0,2013-01-18 03:15:00
9:35 PM,26.6,26.6,100,30.34,10.0,Calm,Calm,-,N/A,,Clear,0,2013-01-18 03:35:00
9:55 PM,26.6,26.6,100,30.35,10.0,Calm,Calm,-,N/A,,Clear,0,2013-01-18 03:55:00
11:15 PM,24.8,24.8,100,30.37,10.0,Calm,Calm,-,N/A,,Clear,0,2013-01-18 05:15:00
11:35 PM,24.8,24.8,100,30.38,10.0,Calm,Calm,-,N/A,,Clear,0,2013-01-18 05:35:00
11:55 PM,24.8,24.8,100,30.39,9.0,Calm,Calm,-,N/A,,Clear,0,2013-01-18 05:55:00